Time,TemperatureF,DewpointF,PressureIn,WindDirection,WindDirectionDegrees,WindSpeedMPH,WindSpeedGustMPH,Humidity,HourlyPrecipIn,Conditions,Clouds,dailyrainin,SolarRadiationWatts/m^2,SoftwareType,DateUTC
2013-01-24 00:03:00,25.6,22.3,29.89,NE,53,4.0,8.0,87,0.00,,,0.00,0,Wunderground v.1.15,2013-01-23 23:03:00,
2013-01-24 00:13:00,25.6,22.3,29.89,ENE,65,5.0,5.0,87,0.00,,,0.00,0,Wunderground v.1.15,2013-01-23 23:13:00,
2013-01-24 00:23:00,25.6,22.3,29.89,ENE,64,4.0,4.0,87,0.00,,,0.00,0,Wunderground v.1.15,2013-01-23 23:23:00,
2013-01-24 00:28:00,25.6,22.3,29.89,NE,56,4.0,4.0,87,0.00,,,0.00,0,Wunderground v.1.15,2013-01-23 23:28:00,
2013-01-24 00:38:00,25.6,22.3,29.89,ENE,76,4.0,6.0,87,0.00,,,0.00,0,Wunderground v.1.15,2013-01-23 23:38:00,
2013-01-24 00:48:00,25.6,22.3,29.89,NE,46,4.0,7.0,87,0.00,,,0.00,0,Wunderground v.1.15,2013-01-23 23:48:00,
2013-01-24 00:58:00,25.7,22.4,29.89,ENE,59,5.0,7.0,87,0.00,,,0.00,0,Wunderground v.1.15,2013-01-23 23:58:00,
2013-01-24 01:04:00,25.7,22.4,29.88,ENE,65,5.0,5.0,87,0.00,,,0.00,0,Wunderground v.1.15,2013-01-24 00:04:00,
2013-01-24 01:13:00,25.8,22.5,29.88,East,83,4.0,4.0,87,0.00,,,0.00,0,Wunderground v.1.15,2013-01-24 00:13:00,
2013-01-24 01:18:00,25.9,22.6,29.88,NE,53,4.0,8.0,87,0.00,,,0.00,0,Wunderground v.1.15,2013-01-24 00:18:00,
2013-01-24 01:28:00,26.0,22.7,29.88,ENE,59,5.0,10.0,87,0.00,,,0.00,0,Wunderground v.1.15,2013-01-24 00:28:00,
2013-01-24 01:38:00,26.1,22.8,29.88,ENE,57,5.0,9.0,87,0.00,,,0.00,0,Wunderground v.1.15,2013-01-24 00:38:00,
2013-01-24 01:48:00,26.1,22.8,29.88,ENE,59,5.0,5.0,87,0.00,,,0.00,0,Wunderground v.1.15,2013-01-24 00:48:00,
2013-01-24 01:53:00,26.2,22.6,29.88,ENE,74,5.0,5.0,86,0.00,,,0.00,0,Wunderground v.1.15,2013-01-24 00:53:00,
2013-01-24 01:58:00,26.2,22.6,29.88,NNE,28,4.0,6.0,86,0.00,,,0.00,0,Wunderground v.1.15,2013-01-24 00:58:00,
2013-01-24 02:08:00,26.3,22.7,29.88,ENE,57,5.0,10.0,86,0.00,,,0.00,0,Wunderground v.1.15,2013-01-24 01:08:00,
2013-01-24 02:18:00,26.3,22.7,29.88,ENE,63,6.0,10.0,86,0.00,,,0.00,0,Wunderground v.1.15,2013-01-24 01:18:00,
2013-01-24 02:23:00,26.3,22.7,29.88,ENE,57,5.0,7.0,86,0.00,,,0.00,0,Wunderground v.1.15,2013-01-24 01:23:00,
2013-01-24 02:33:00,26.3,22.7,29.88,NE,51,6.0,6.0,86,0.00,,,0.00,0,Wunderground v.1.15,2013-01-24 01:33:00,
2013-01-24 02:38:00,26.3,23.0,29.89,NE,48,5.0,6.0,87,0.00,,,0.00,0,Wunderground v.1.15,2013-01-24 01:38:00,
2013-01-24 02:43:00,26.3,23.0,29.89,ENE,68,4.0,8.0,87,0.00,,,0.00,0,Wunderground v.1.15,2013-01-24 01:43:00,
2013-01-24 02:53:00,26.3,23.0,29.89,ENE,57,4.0,5.0,87,0.00,,,0.00,0,Wunderground v.1.15,2013-01-24 01:53:00,
2013-01-24 03:03:00,26.3,23.0,29.89,NE,48,4.0,8.0,87,0.00,,,0.00,0,Wunderground v.1.15,2013-01-24 02:03:00,
2013-01-24 03:08:00,26.3,23.0,29.88,NE,42,4.0,8.0,87,0.00,,,0.00,0,Wunderground v.1.15,2013-01-24 02:08:00,
2013-01-24 03:13:00,26.3,23.0,29.89,NE,49,4.0,4.0,87,0.00,,,0.00,0,Wunderground v.1.15,2013-01-24 02:13:00,
2013-01-24 03:23:00,26.3,23.0,29.89,ENE,61,4.0,7.0,87,0.00,,,0.00,0,Wunderground v.1.15,2013-01-24 02:23:00,
2013-01-24 03:28:00,26.3,23.0,29.88,ENE,72,5.0,9.0,87,0.00,,,0.00,0,Wunderground v.1.15,2013-01-24 02:28:00,
2013-01-24 03:38:00,26.4,23.1,29.89,ENE,59,4.0,8.0,87,0.00,,,0.00,0,Wunderground v.1.15,2013-01-24 02:38:00,
2013-01-24 03:48:00,26.4,23.1,29.89,NE,56,4.0,5.0,87,0.00,,,0.00,0,Wunderground v.1.15,2013-01-24 02:48:00,
2013-01-24 03:53:00,26.4,23.3,29.89,NE,52,4.0,5.0,88,0.00,,,0.00,0,Wunderground v.1.15,2013-01-24 02:53:00,
2013-01-24 04:03:00,26.5,23.4,29.89,ENE,73,5.0,5.0,88,0.00,,,0.00,0,Wunderground v.1.15,2013-01-24 03:03:00,
2013-01-24 04:13:00,26.5,23.4,29.89,NE,54,5.0,5.0,88,0.00,,,0.00,0,Wunderground v.1.15,2013-01-24 03:13:00,
2013-01-24 04:18:00,26.6,23.5,29.90,NE,53,4.0,5.0,88,0.00,,,0.00,0,Wunderground v.1.15,2013-01-24 03:18:00,
2013-01-24 04:28:00,26.4,23.3,29.91,ENE,63,3.0,4.0,88,0.00,,,0.00,0,Wunderground v.1.15,2013-01-24 03:28:00,
2013-01-24 04:38:00,26.3,23.2,29.91,ENE,62,4.0,9.0,88,0.00,,,0.00,0,Wunderground v.1.15,2013-01-24 03:38:00,
2013-01-24 04:48:00,26.0,23.2,29.91,ENE,65,4.0,8.0,89,0.00,,,0.00,0,Wunderground v.1.15,2013-01-24 03:48:00,
2013-01-24 04:53:00,25.9,23.1,29.92,ENE,67,4.0,8.0,89,0.00,,,0.00,0,Wunderground v.1.15,2013-01-24 03:53:00,
2013-01-24 05:03:00,25.6,22.8,29.92,ENE,59,4.0,4.0,89,0.00,,,0.00,0,Wunderground v.1.15,2013-01-24 04:03:00,
2013-01-24 05:13:00,25.2,22.4,29.92,NE,34,3.0,5.0,89,0.00,,,0.00,0,Wunderground v.1.15,2013-01-24 04:13:00,
2013-01-24 05:23:00,24.8,22.0,29.92,ENE,61,3.0,5.0,89,0.00,,,0.00,0,Wunderground v.1.15,2013-01-24 04:23:00,
2013-01-24 05:33:00,24.4,21.9,29.93,NNE,26,3.0,4.0,90,0.00,,,0.00,0,Wunderground v.1.15,2013-01-24 04:33:00,
2013-01-24 05:38:00,24.3,21.8,29.93,NNE,27,3.0,4.0,90,0.00,,,0.00,0,Wunderground v.1.15,2013-01-24 04:38:00,
2013-01-24 05:43:00,24.1,21.6,29.93,NNE,27,2.0,2.0,90,0.00,,,0.00,0,Wunderground v.1.15,2013-01-24 04:43:00,
2013-01-24 05:48:00,23.9,21.4,29.93,NNE,27,1.0,3.0,90,0.00,,,0.00,0,Wunderground v.1.15,2013-01-24 04:48:00,
2013-01-24 05:53:00,23.8,21.3,29.94,NNE,27,1.0,1.0,90,0.00,,,0.00,0,Wunderground v.1.15,2013-01-24 04:53:00,
2013-01-24 06:03:00,23.4,20.9,29.94,NNE,26,2.0,4.0,90,0.00,,,0.00,0,Wunderground v.1.15,2013-01-24 05:03:00,
2013-01-24 06:08:00,23.2,20.7,29.94,NNE,27,3.0,5.0,90,0.00,,,0.00,0,Wunderground v.1.15,2013-01-24 05:08:00,
2013-01-24 06:13:00,23.0,20.8,29.94,NE,44,3.0,3.0,91,0.00,,,0.00,0,Wunderground v.1.15,2013-01-24 05:13:00,
2013-01-24 06:18:00,22.8,20.6,29.94,NE,44,3.0,4.0,91,0.00,,,0.00,0,Wunderground v.1.15,2013-01-24 05:18:00,
2013-01-24 06:23:00,22.6,20.4,29.94,NNE,30,4.0,5.0,91,0.00,,,0.00,0,Wunderground v.1.15,2013-01-24 05:23:00,
2013-01-24 06:28:00,22.3,20.1,29.95,NE,53,4.0,6.0,91,0.00,,,0.00,0,Wunderground v.1.15,2013-01-24 05:28:00,
2013-01-24 06:38:00,21.9,19.7,29.95,NE,51,4.0,4.0,91,0.00,,,0.00,0,Wunderground v.1.15,2013-01-24 05:38:00,
2013-01-24 06:48:00,21.8,19.8,29.96,ENE,71,6.0,7.0,92,0.00,,,0.00,0,Wunderground v.1.15,2013-01-24 05:48:00,
2013-01-24 06:58:00,21.9,19.9,29.97,ENE,61,7.0,11.0,92,0.00,,,0.00,0,Wunderground v.1.15,2013-01-24 05:58:00,
2013-01-24 07:03:00,22.0,20.0,29.97,ENE,59,6.0,6.0,92,0.00,,,0.00,0,Wunderground v.1.15,2013-01-24 06:03:00,
2013-01-24 07:13:00,22.2,20.5,29.97,East,82,5.0,5.0,93,0.00,,,0.00,0,Wunderground v.1.15,2013-01-24 06:13:00,
2013-01-24 07:18:00,22.3,20.6,29.97,NNE,28,4.0,7.0,93,0.00,,,0.00,0,Wunderground v.1.15,2013-01-24 06:18:00,
2013-01-24 07:28:00,22.5,20.8,29.97,NE,49,4.0,5.0,93,0.00,,,0.00,0,Wunderground v.1.15,2013-01-24 06:28:00,
2013-01-24 07:33:00,22.6,20.9,29.98,NE,53,3.0,5.0,93,0.00,,,0.00,0,Wunderground v.1.15,2013-01-24 06:33:00,
2013-01-24 07:43:00,22.7,21.0,29.98,NE,53,3.0,3.0,93,0.00,,,0.00,0,Wunderground v.1.15,2013-01-24 06:43:00,
2013-01-24 07:48:00,22.8,21.1,29.98,NE,53,3.0,4.0,93,0.00,,,0.00,0,Wunderground v.1.15,2013-01-24 06:48:00,
2013-01-24 07:53:00,22.9,21.2,29.98,NE,52,3.0,3.0,93,0.00,,,0.00,0,Wunderground v.1.15,2013-01-24 06:53:00,
2013-01-24 08:03:00,23.2,21.7,29.99,ENE,63,3.0,5.0,94,0.00,,,0.00,0,Wunderground v.1.15,2013-01-24 07:03:00,
2013-01-24 08:13:00,23.7,22.2,29.99,NE,48,4.0,5.0,94,0.00,,,0.00,0,Wunderground v.1.15,2013-01-24 07:13:00,
2013-01-24 08:23:00,24.2,22.7,29.99,ENE,65,5.0,5.0,94,0.00,,,0.00,0,Wunderground v.1.15,2013-01-24 07:23:00,
2013-01-24 08:28:00,24.4,22.9,29.99,NE,48,4.0,7.0,94,0.00,,,0.00,0,Wunderground v.1.15,2013-01-24 07:28:00,
2013-01-24 08:33:00,24.5,23.0,30.00,ENE,64,4.0,9.0,94,0.00,,,0.00,0,Wunderground v.1.15,2013-01-24 07:33:00,
2013-01-24 08:38:00,24.6,23.1,30.00,East,84,5.0,9.0,94,0.00,,,0.00,0,Wunderground v.1.15,2013-01-24 07:38:00,
2013-01-24 08:48:00,24.8,23.1,30.00,NE,56,4.0,7.0,93,0.00,,,0.00,5,Wunderground v.1.15,2013-01-24 07:48:00,
2013-01-24 08:53:00,24.9,23.2,30.00,ENE,61,4.0,4.0,93,0.00,,,0.00,5,Wunderground v.1.15,2013-01-24 07:53:00,
2013-01-24 09:03:00,25.1,23.4,30.00,NE,52,3.0,5.0,93,0.00,,,0.00,9,Wunderground v.1.15,2013-01-24 08:03:00,
2013-01-24 09:08:00,25.2,23.5,30.00,ENE,62,3.0,7.0,93,0.00,,,0.00,12,Wunderground v.1.15,2013-01-24 08:08:00,
2013-01-24 09:18:00,25.4,23.7,30.00,ENE,71,4.0,6.0,93,0.00,,,0.00,16,Wunderground v.1.15,2013-01-24 08:18:00,
2013-01-24 09:28:00,25.7,24.0,30.00,NE,55,4.0,7.0,93,0.00,,,0.00,25,Wunderground v.1.15,2013-01-24 08:28:00,
2013-01-24 09:33:00,25.7,24.0,30.00,ENE,66,4.0,4.0,93,0.00,,,0.00,26,Wunderground v.1.15,2013-01-24 08:33:00,
2013-01-24 09:43:00,25.8,23.8,30.01,NE,44,3.0,4.0,92,0.00,,,0.00,33,Wunderground v.1.15,2013-01-24 08:43:00,
2013-01-24 09:48:00,25.9,23.9,30.01,NNE,12,3.0,6.0,92,0.00,,,0.00,40,Wunderground v.1.15,2013-01-24 08:48:00,
2013-01-24 09:58:00,25.5,23.5,30.01,NE,36,5.0,8.0,92,0.00,,,0.00,54,Wunderground v.1.15,2013-01-24 08:58:00,
2013-01-24 10:08:00,25.2,23.2,30.01,NNE,33,3.0,7.0,92,0.00,,,0.00,63,Wunderground v.1.15,2013-01-24 09:08:00,
2013-01-24 10:13:00,25.2,23.2,30.02,NE,34,2.0,2.0,92,0.00,,,0.00,69,Wunderground v.1.15,2013-01-24 09:13:00,
2013-01-24 10:23:00,25.2,23.2,30.02,NE,55,2.0,2.0,92,0.00,,,0.00,79,Wunderground v.1.15,2013-01-24 09:23:00,
2013-01-24 10:28:00,25.2,23.2,30.02,NE,55,1.0,3.0,92,0.00,,,0.00,84,Wunderground v.1.15,2013-01-24 09:28:00,
2013-01-24 10:38:00,25.2,23.2,30.02,NE,55,2.0,3.0,92,0.00,,,0.00,107,Wunderground v.1.15,2013-01-24 09:38:00,
2013-01-24 10:48:00,25.3,23.3,30.02,NE,55,1.0,2.0,92,0.00,,,0.00,113,Wunderground v.1.15,2013-01-24 09:48:00,
2013-01-24 10:58:00,25.6,23.6,30.03,NE,55,0.0,1.0,92,0.00,,,0.00,134,Wunderground v.1.15,2013-01-24 09:58:00,
2013-01-24 11:03:00,25.9,23.9,30.03,NE,55,0.0,2.0,92,0.00,,,0.00,139,Wunderground v.1.15,2013-01-24 10:03:00,
2013-01-24 11:13:00,26.3,24.3,30.03,NE,55,1.0,1.0,92,0.00,,,0.00,156,Wunderground v.1.15,2013-01-24 10:13:00,
2013-01-24 11:18:00,26.5,24.5,30.03,ENE,78,1.0,1.0,92,0.00,,,0.00,172,Wunderground v.1.15,2013-01-24 10:18:00,
2013-01-24 11:28:00,27.1,24.8,30.02,ESE,102,1.0,3.0,91,0.00,,,0.00,192,Wunderground v.1.15,2013-01-24 10:28:00,
2013-01-24 11:38:00,27.6,25.1,30.03,ESE,102,2.0,4.0,90,0.00,,,0.00,213,Wunderground v.1.15,2013-01-24 10:38:00,
2013-01-24 11:48:00,27.9,24.8,30.03,East,82,3.0,3.0,88,0.00,,,0.00,199,Wunderground v.1.15,2013-01-24 10:48:00,
2013-01-24 11:58:00,28.0,24.6,30.03,NE,55,3.0,5.0,87,0.00,,,0.00,239,Wunderground v.1.15,2013-01-24 10:58:00,
2013-01-24 12:08:00,28.2,24.8,30.03,East,94,3.0,7.0,87,0.00,,,0.00,236,Wunderground v.1.15,2013-01-24 11:08:00,
2013-01-24 12:13:00,28.4,24.7,30.03,East,92,3.0,5.0,86,0.00,,,0.00,255,Wunderground v.1.15,2013-01-24 11:13:00,
2013-01-24 12:23:00,28.8,24.9,30.03,East,86,3.0,7.0,85,0.00,,,0.00,262,Wunderground v.1.15,2013-01-24 11:23:00,
2013-01-24 12:33:00,28.9,24.7,30.04,ENE,69,4.0,4.0,84,0.00,,,0.00,288,Wunderground v.1.15,2013-01-24 11:33:00,
2013-01-24 12:43:00,29.2,25.0,30.03,East,90,3.0,3.0,84,0.00,,,0.00,295,Wunderground v.1.15,2013-01-24 11:43:00,
2013-01-24 12:48:00,29.6,25.4,30.03,East,91,3.0,3.0,84,0.00,,,0.00,309,Wunderground v.1.15,2013-01-24 11:48:00,
2013-01-24 12:58:00,30.2,25.7,30.03,ENE,70,3.0,8.0,83,0.00,,,0.00,313,Wunderground v.1.15,2013-01-24 11:58:00,
2013-01-24 13:08:00,30.9,25.5,30.03,NE,53,3.0,6.0,80,0.00,,,0.00,316,Wunderground v.1.15,2013-01-24 12:08:00,
2013-01-24 13:13:00,31.2,25.4,30.03,ENE,57,3.0,8.0,79,0.00,,,0.00,316,Wunderground v.1.15,2013-01-24 12:13:00,
2013-01-24 13:23:00,31.5,25.1,30.04,NE,40,4.0,4.0,77,0.00,,,0.00,318,Wunderground v.1.15,2013-01-24 12:23:00,
2013-01-24 13:28:00,31.4,25.0,30.04,North,11,4.0,7.0,77,0.00,,,0.00,318,Wunderground v.1.15,2013-01-24 12:28:00,
2013-01-24 13:38:00,31.3,24.9,30.04,ENE,57,4.0,5.0,77,0.00,,,0.00,295,Wunderground v.1.15,2013-01-24 12:38:00,
2013-01-24 13:43:00,31.4,24.7,30.04,NE,50,4.0,6.0,76,0.00,,,0.00,301,Wunderground v.1.15,2013-01-24 12:43:00,
2013-01-24 13:53:00,31.7,24.7,30.04,ENE,63,4.0,5.0,75,0.00,,,0.00,295,Wunderground v.1.15,2013-01-24 12:53:00,
2013-01-24 13:58:00,31.8,24.8,30.04,ENE,68,5.0,7.0,75,0.00,,,0.00,294,Wunderground v.1.15,2013-01-24 12:58:00,
2013-01-24 14:03:00,31.8,24.5,30.04,ENE,63,5.0,8.0,74,0.00,,,0.00,295,Wunderground v.1.15,2013-01-24 13:03:00,
2013-01-24 14:08:00,31.9,24.6,30.04,ENE,61,4.0,8.0,74,0.00,,,0.00,295,Wunderground v.1.15,2013-01-24 13:08:00,
2013-01-24 14:13:00,31.9,24.6,30.03,ENE,59,4.0,4.0,74,0.00,,,0.00,294,Wunderground v.1.15,2013-01-24 13:13:00,
2013-01-24 14:23:00,32.1,24.4,30.04,ENE,59,5.0,8.0,73,0.00,,,0.00,278,Wunderground v.1.15,2013-01-24 13:23:00,
2013-01-24 14:28:00,32.0,24.3,30.04,NNE,26,6.0,8.0,73,0.00,,,0.00,274,Wunderground v.1.15,2013-01-24 13:28:00,
2013-01-24 14:38:00,31.7,24.7,30.04,NE,38,4.0,6.0,75,0.00,,,0.00,267,Wunderground v.1.15,2013-01-24 13:38:00,
2013-01-24 14:43:00,31.6,24.6,30.04,NE,48,4.0,9.0,75,0.00,,,0.00,262,Wunderground v.1.15,2013-01-24 13:43:00,
2013-01-24 14:53:00,32.0,24.6,30.04,NE,46,4.0,9.0,74,0.00,,,0.00,248,Wunderground v.1.15,2013-01-24 13:53:00,
2013-01-24 14:58:00,31.8,24.5,30.04,NE,39,5.0,9.0,74,0.00,,,0.00,253,Wunderground v.1.15,2013-01-24 13:58:00,
2013-01-24 15:03:00,32.0,24.6,30.04,NE,34,6.0,6.0,74,0.00,,,0.00,281,Wunderground v.1.15,2013-01-24 14:03:00,
2013-01-24 15:13:00,32.1,24.4,30.05,NE,46,4.0,7.0,73,0.00,,,0.00,292,Wunderground v.1.15,2013-01-24 14:13:00,
2013-01-24 15:23:00,32.1,24.4,30.05,ENE,61,7.0,9.0,73,0.00,,,0.00,174,Wunderground v.1.15,2013-01-24 14:23:00,
2013-01-24 15:28:00,32.1,24.4,30.05,North,355,6.0,9.0,73,0.00,,,0.00,206,Wunderground v.1.15,2013-01-24 14:28:00,
2013-01-24 15:33:00,32.0,24.3,30.05,NNE,13,5.0,5.0,73,0.00,,,0.00,192,Wunderground v.1.15,2013-01-24 14:33:00,
2013-01-24 15:43:00,32.0,24.3,30.06,NE,43,6.0,7.0,73,0.00,,,0.00,186,Wunderground v.1.15,2013-01-24 14:43:00,
2013-01-24 15:48:00,32.0,24.3,30.06,NE,49,5.0,9.0,73,0.00,,,0.00,160,Wunderground v.1.15,2013-01-24 14:48:00,
2013-01-24 15:53:00,31.9,24.2,30.05,ENE,64,4.0,8.0,73,0.00,,,0.00,128,Wunderground v.1.15,2013-01-24 14:53:00,
2013-01-24 16:03:00,31.9,23.9,30.06,NE,48,5.0,5.0,72,0.00,,,0.00,107,Wunderground v.1.15,2013-01-24 15:03:00,
2013-01-24 16:13:00,31.9,23.6,30.06,ENE,65,5.0,10.0,71,0.00,,,0.00,86,Wunderground v.1.15,2013-01-24 15:13:00,
2013-01-24 16:23:00,31.8,23.5,30.06,NE,55,5.0,9.0,71,0.00,,,0.00,63,Wunderground v.1.15,2013-01-24 15:23:00,
2013-01-24 16:28:00,31.7,23.7,30.06,ENE,61,5.0,9.0,72,0.00,,,0.00,56,Wunderground v.1.15,2013-01-24 15:28:00,
2013-01-24 16:38:00,31.4,23.4,30.06,NNE,14,5.0,7.0,72,0.00,,,0.00,39,Wunderground v.1.15,2013-01-24 15:38:00,
2013-01-24 16:48:00,31.0,23.4,30.07,ENE,63,5.0,9.0,73,0.00,,,0.00,21,Wunderground v.1.15,2013-01-24 15:48:00,
2013-01-24 16:58:00,30.6,23.3,30.07,ENE,64,5.0,6.0,74,0.00,,,0.00,12,Wunderground v.1.15,2013-01-24 15:58:00,
2013-01-24 17:08:00,30.3,23.0,30.07,NE,42,4.0,7.0,74,0.00,,,0.00,7,Wunderground v.1.15,2013-01-24 16:08:00,
2013-01-24 17:18:00,29.9,22.9,30.07,NE,44,4.0,5.0,75,0.00,,,0.00,0,Wunderground v.1.15,2013-01-24 16:18:00,
2013-01-24 17:23:00,29.7,22.7,30.07,NE,51,4.0,7.0,75,0.00,,,0.00,0,Wunderground v.1.15,2013-01-24 16:23:00,
2013-01-24 17:33:00,29.5,22.6,30.08,NE,49,4.0,4.0,75,0.00,,,0.00,0,Wunderground v.1.15,2013-01-24 16:33:00,
2013-01-24 17:39:00,29.4,22.5,30.08,NE,48,3.0,5.0,75,0.00,,,0.00,0,Wunderground v.1.15,2013-01-24 16:39:00,
2013-01-24 17:48:00,29.1,22.2,30.08,NNE,26,3.0,5.0,75,0.00,,,0.00,0,Wunderground v.1.15,2013-01-24 16:48:00,
2013-01-24 17:58:00,28.8,22.2,30.08,NNE,30,2.0,4.0,76,0.00,,,0.00,0,Wunderground v.1.15,2013-01-24 16:58:00,
2013-01-24 18:08:00,28.5,21.9,30.08,NE,56,3.0,3.0,76,0.00,,,0.00,0,Wunderground v.1.15,2013-01-24 17:08:00,
2013-01-24 18:13:00,28.4,22.1,30.08,ENE,63,2.0,4.0,77,0.00,,,0.00,0,Wunderground v.1.15,2013-01-24 17:13:00,
2013-01-24 18:18:00,28.4,22.1,30.09,NE,51,3.0,7.0,77,0.00,,,0.00,0,Wunderground v.1.15,2013-01-24 17:18:00,
2013-01-24 18:23:00,28.4,22.1,30.09,NE,51,3.0,3.0,77,0.00,,,0.00,0,Wunderground v.1.15,2013-01-24 17:23:00,
2013-01-24 18:33:00,28.3,22.0,30.10,ENE,60,2.0,2.0,77,0.00,,,0.00,0,Wunderground v.1.15,2013-01-24 17:33:00,
2013-01-24 18:43:00,28.1,21.8,30.10,ENE,60,0.0,2.0,77,0.00,,,0.00,0,Wunderground v.1.15,2013-01-24 17:43:00,
2013-01-24 18:48:00,27.9,21.9,30.10,ENE,60,1.0,2.0,78,0.00,,,0.00,0,Wunderground v.1.15,2013-01-24 17:48:00,
2013-01-24 18:58:00,27.7,21.7,30.11,ENE,60,0.0,2.0,78,0.00,,,0.00,0,Wunderground v.1.15,2013-01-24 17:58:00,
2013-01-24 19:03:00,27.5,21.8,30.11,ENE,60,1.0,2.0,79,0.00,,,0.00,0,Wunderground v.1.15,2013-01-24 18:03:00,
2013-01-24 19:13:00,27.2,21.5,30.11,ENE,60,1.0,1.0,79,0.00,,,0.00,0,Wunderground v.1.15,2013-01-24 18:13:00,
2013-01-24 19:23:00,27.0,21.7,30.12,ENE,60,1.0,2.0,80,0.00,,,0.00,0,Wunderground v.1.15,2013-01-24 18:23:00,
2013-01-24 19:33:00,26.9,21.8,30.12,ENE,60,0.0,0.0,81,0.00,,,0.00,0,Wunderground v.1.15,2013-01-24 18:33:00,
2013-01-24 19:38:00,26.8,21.8,30.13,ENE,60,1.0,3.0,81,0.00,,,0.00,0,Wunderground v.1.15,2013-01-24 18:38:00,
2013-01-24 19:48:00,26.4,21.7,30.13,ENE,60,2.0,2.0,82,0.00,,,0.00,0,Wunderground v.1.15,2013-01-24 18:48:00,
2013-01-24 19:58:00,26.3,21.8,30.13,ENE,60,0.0,1.0,83,0.00,,,0.00,0,Wunderground v.1.15,2013-01-24 18:58:00,
2013-01-24 20:08:00,26.1,21.6,30.13,ENE,60,0.0,0.0,83,0.00,,,0.00,0,Wunderground v.1.15,2013-01-24 19:08:00,
2013-01-24 20:13:00,26.1,21.6,30.14,ENE,60,0.0,0.0,83,0.00,,,0.00,0,Wunderground v.1.15,2013-01-24 19:13:00,
2013-01-24 20:18:00,25.9,21.4,30.13,ENE,60,0.0,0.0,83,0.00,,,0.00,0,Wunderground v.1.15,2013-01-24 19:18:00,
2013-01-24 20:28:00,25.8,21.6,30.14,ENE,60,0.0,1.0,84,0.00,,,0.00,0,Wunderground v.1.15,2013-01-24 19:28:00,
2013-01-24 20:38:00,25.7,21.5,30.14,ENE,60,0.0,2.0,84,0.00,,,0.00,0,Wunderground v.1.15,2013-01-24 19:38:00,
2013-01-24 20:43:00,25.8,21.6,30.14,ENE,60,1.0,2.0,84,0.00,,,0.00,0,Wunderground v.1.15,2013-01-24 19:43:00,
2013-01-24 20:53:00,25.8,21.3,30.13,ENE,60,1.0,2.0,83,0.00,,,0.00,0,Wunderground v.1.15,2013-01-24 19:53:00,
2013-01-24 20:58:00,25.8,21.3,30.13,ENE,60,1.0,2.0,83,0.00,,,0.00,0,Wunderground v.1.15,2013-01-24 19:58:00,
2013-01-24 21:08:00,25.9,21.4,30.13,ENE,60,2.0,3.0,83,0.00,,,0.00,0,Wunderground v.1.15,2013-01-24 20:08:00,
2013-01-24 21:18:00,25.9,21.4,30.14,ENE,60,1.0,2.0,83,0.00,,,0.00,0,Wunderground v.1.15,2013-01-24 20:18:00,
2013-01-24 21:28:00,25.8,21.3,30.14,ENE,60,1.0,2.0,83,0.00,,,0.00,0,Wunderground v.1.15,2013-01-24 20:28:00,
2013-01-24 21:38:00,25.8,21.3,30.14,ENE,60,1.0,1.0,83,0.00,,,0.00,0,Wunderground v.1.15,2013-01-24 20:38:00,
2013-01-24 21:48:00,25.6,21.2,30.14,ENE,60,0.0,1.0,83,0.00,,,0.00,0,Wunderground v.1.15,2013-01-24 20:48:00,
2013-01-24 21:53:00,25.5,21.1,30.13,ENE,60,0.0,1.0,83,0.00,,,0.00,0,Wunderground v.1.15,2013-01-24 20:53:00,
2013-01-24 22:03:00,25.4,21.2,30.14,ENE,61,2.0,4.0,84,0.00,,,0.00,0,Wunderground v.1.15,2013-01-24 21:03:00,
2013-01-24 22:08:00,25.3,21.1,30.14,ENE,74,2.0,4.0,84,0.00,,,0.00,0,Wunderground v.1.15,2013-01-24 21:08:00,
2013-01-24 22:18:00,25.0,20.8,30.14,ENE,74,1.0,2.0,84,0.00,,,0.00,0,Wunderground v.1.15,2013-01-24 21:18:00,
2013-01-24 22:28:00,24.9,21.0,30.14,ENE,74,1.0,2.0,85,0.00,,,0.00,0,Wunderground v.1.15,2013-01-24 21:28:00,
2013-01-24 22:38:00,24.8,20.9,30.14,ENE,74,1.0,1.0,85,0.00,,,0.00,0,Wunderground v.1.15,2013-01-24 21:38:00,
2013-01-24 22:48:00,24.6,20.7,30.14,ENE,74,0.0,1.0,85,0.00,,,0.00,0,Wunderground v.1.15,2013-01-24 21:48:00,
2013-01-24 22:53:00,24.5,22.5,30.14,ENE,74,0.0,0.0,92,0.00,,,0.00,0,Wunderground v.1.15,2013-01-24 21:53:00,
2013-01-24 22:58:00,24.4,20.5,30.14,ENE,74,0.0,0.0,85,0.00,,,0.00,0,Wunderground v.1.15,2013-01-24 21:58:00,
2013-01-24 23:03:00,24.4,20.5,30.14,ENE,74,0.0,1.0,85,0.00,,,0.00,0,Wunderground v.1.15,2013-01-24 22:03:00,
2013-01-24 23:08:00,24.3,20.4,30.15,ENE,74,1.0,2.0,85,0.00,,,0.00,0,Wunderground v.1.15,2013-01-24 22:08:00,
2013-01-24 23:18:00,24.2,20.6,30.14,ENE,74,1.0,2.0,86,0.00,,,0.00,0,Wunderground v.1.15,2013-01-24 22:18:00,
2013-01-24 23:28:00,24.1,20.5,30.14,ENE,74,0.0,1.0,86,0.00,,,0.00,0,Wunderground v.1.15,2013-01-24 22:28:00,
2013-01-24 23:38:00,24.0,20.4,30.14,ENE,74,0.0,1.0,86,0.00,,,0.00,0,Wunderground v.1.15,2013-01-24 22:38:00,
2013-01-24 23:43:00,23.9,20.3,30.15,ENE,74,0.0,0.0,86,0.00,,,0.00,0,Wunderground v.1.15,2013-01-24 22:43:00,
2013-01-24 23:48:00,23.9,20.3,30.15,ENE,74,0.0,0.0,86,0.00,,,0.00,0,Wunderground v.1.15,2013-01-24 22:48:00,
2013-01-24 23:58:00,23.7,20.1,30.15,ENE,74,0.0,0.0,86,0.00,,,0.00,0,Wunderground v.1.15,2013-01-24 22:58:00,